sensor_id;sensor_type;location;lat;lon;timestamp;P1;durP1;ratioP1;P2;durP2;ratioP2
2257;SDS011;1136;51.574;7.706;2024-02-28T00:00:24;36.77;;;19.13;;
2257;SDS011;1136;51.574;7.706;2024-02-28T00:03:28;37.90;;;24.17;;
2257;SDS011;1136;51.574;7.706;2024-02-28T00:06:32;36.30;;;21.80;;
2257;SDS011;1136;51.574;7.706;2024-02-28T00:09:36;30.80;;;20.77;;
2257;SDS011;1136;51.574;7.706;2024-02-28T00:12:40;34.07;;;21.60;;
2257;SDS011;1136;51.574;7.706;2024-02-28T00:15:44;37.10;;;21.07;;
2257;SDS011;1136;51.574;7.706;2024-02-28T00:18:49;40.47;;;21.00;;
2257;SDS011;1136;51.574;7.706;2024-02-28T00:21:53;33.03;;;21.20;;
2257;SDS011;1136;51.574;7.706;2024-02-28T00:24:58;35.67;;;21.83;;
2257;SDS011;1136;51.574;7.706;2024-02-28T00:28:01;36.10;;;21.87;;
2257;SDS011;1136;51.574;7.706;2024-02-28T00:31:05;34.97;;;21.53;;
2257;SDS011;1136;51.574;7.706;2024-02-28T00:34:10;36.80;;;20.20;;
2257;SDS011;1136;51.574;7.706;2024-02-28T00:37:14;41.30;;;21.40;;
2257;SDS011;1136;51.574;7.706;2024-02-28T00:40:18;37.80;;;21.60;;
2257;SDS011;1136;51.574;7.706;2024-02-28T00:43:22;37.97;;;21.07;;
2257;SDS011;1136;51.574;7.706;2024-02-28T00:46:27;36.23;;;21.83;;
2257;SDS011;1136;51.574;7.706;2024-02-28T00:49:31;31.93;;;19.73;;
2257;SDS011;1136;51.574;7.706;2024-02-28T00:52:35;39.63;;;21.30;;
2257;SDS011;1136;51.574;7.706;2024-02-28T00:55:39;41.37;;;22.37;;
2257;SDS011;1136;51.574;7.706;2024-02-28T00:58:46;35.10;;;20.27;;
2257;SDS011;1136;51.574;7.706;2024-02-28T01:01:50;38.10;;;22.00;;
2257;SDS011;1136;51.574;7.706;2024-02-28T01:04:55;37.47;;;20.97;;
2257;SDS011;1136;51.574;7.706;2024-02-28T01:08:00;32.53;;;20.47;;
2257;SDS011;1136;51.574;7.706;2024-02-28T01:11:04;36.83;;;20.50;;
2257;SDS011;1136;51.574;7.706;2024-02-28T01:14:08;34.50;;;18.27;;
2257;SDS011;1136;51.574;7.706;2024-02-28T01:17:15;42.43;;;22.90;;
2257;SDS011;1136;51.574;7.706;2024-02-28T01:20:19;34.10;;;19.70;;
2257;SDS011;1136;51.574;7.706;2024-02-28T01:23:23;32.53;;;18.33;;
2257;SDS011;1136;51.574;7.706;2024-02-28T01:26:27;37.07;;;22.37;;
2257;SDS011;1136;51.574;7.706;2024-02-28T01:29:31;46.83;;;21.63;;
2257;SDS011;1136;51.574;7.706;2024-02-28T01:32:36;59.77;;;24.87;;
2257;SDS011;1136;51.574;7.706;2024-02-28T01:35:40;54.70;;;23.40;;
2257;SDS011;1136;51.574;7.706;2024-02-28T01:38:44;48.17;;;22.53;;
2257;SDS011;1136;51.574;7.706;2024-02-28T01:41:51;62.57;;;24.60;;
2257;SDS011;1136;51.574;7.706;2024-02-28T01:44:59;54.87;;;24.67;;
2257;SDS011;1136;51.574;7.706;2024-02-28T01:48:04;63.87;;;24.63;;
2257;SDS011;1136;51.574;7.706;2024-02-28T01:51:12;58.93;;;24.93;;
2257;SDS011;1136;51.574;7.706;2024-02-28T01:54:16;56.27;;;24.70;;
2257;SDS011;1136;51.574;7.706;2024-02-28T01:57:20;53.60;;;26.20;;
2257;SDS011;1136;51.574;7.706;2024-02-28T02:00:25;43.87;;;23.30;;
2257;SDS011;1136;51.574;7.706;2024-02-28T02:03:31;48.53;;;25.20;;
2257;SDS011;1136;51.574;7.706;2024-02-28T02:06:37;63.33;;;25.67;;
2257;SDS011;1136;51.574;7.706;2024-02-28T02:09:43;61.80;;;28.30;;
2257;SDS011;1136;51.574;7.706;2024-02-28T02:12:47;66.43;;;27.03;;
2257;SDS011;1136;51.574;7.706;2024-02-28T02:15:52;52.40;;;25.70;;
2257;SDS011;1136;51.574;7.706;2024-02-28T02:18:56;53.20;;;25.60;;
2257;SDS011;1136;51.574;7.706;2024-02-28T02:22:01;46.67;;;24.90;;
2257;SDS011;1136;51.574;7.706;2024-02-28T02:25:09;53.60;;;23.60;;
2257;SDS011;1136;51.574;7.706;2024-02-28T02:28:13;47.93;;;23.77;;
2257;SDS011;1136;51.574;7.706;2024-02-28T02:31:17;34.03;;;20.33;;
2257;SDS011;1136;51.574;7.706;2024-02-28T02:34:21;38.43;;;22.67;;
2257;SDS011;1136;51.574;7.706;2024-02-28T02:37:25;39.57;;;22.97;;
2257;SDS011;1136;51.574;7.706;2024-02-28T02:40:29;42.43;;;22.90;;
2257;SDS011;1136;51.574;7.706;2024-02-28T02:43:33;39.77;;;22.37;;
2257;SDS011;1136;51.574;7.706;2024-02-28T02:46:38;40.80;;;21.97;;
2257;SDS011;1136;51.574;7.706;2024-02-28T02:49:43;44.73;;;23.90;;
2257;SDS011;1136;51.574;7.706;2024-02-28T02:52:47;56.70;;;22.70;;
2257;SDS011;1136;51.574;7.706;2024-02-28T02:55:51;62.90;;;24.53;;
2257;SDS011;1136;51.574;7.706;2024-02-28T02:58:55;51.60;;;23.53;;
2257;SDS011;1136;51.574;7.706;2024-02-28T03:01:59;63.03;;;23.33;;
2257;SDS011;1136;51.574;7.706;2024-02-28T03:05:03;40.63;;;22.10;;
2257;SDS011;1136;51.574;7.706;2024-02-28T03:08:07;62.50;;;24.87;;
2257;SDS011;1136;51.574;7.706;2024-02-28T03:11:12;38.70;;;20.50;;
2257;SDS011;1136;51.574;7.706;2024-02-28T03:14:17;39.83;;;22.43;;
2257;SDS011;1136;51.574;7.706;2024-02-28T03:17:22;43.30;;;25.03;;
2257;SDS011;1136;51.574;7.706;2024-02-28T03:20:26;56.33;;;25.80;;
2257;SDS011;1136;51.574;7.706;2024-02-28T03:23:31;48.23;;;23.83;;
2257;SDS011;1136;51.574;7.706;2024-02-28T03:26:35;40.80;;;22.67;;
2257;SDS011;1136;51.574;7.706;2024-02-28T03:29:40;79.60;;;23.53;;
2257;SDS011;1136;51.574;7.706;2024-02-28T03:32:44;64.67;;;23.47;;
2257;SDS011;1136;51.574;7.706;2024-02-28T03:35:48;47.70;;;23.50;;
2257;SDS011;1136;51.574;7.706;2024-02-28T03:38:52;37.90;;;21.07;;
2257;SDS011;1136;51.574;7.706;2024-02-28T03:41:56;48.13;;;23.80;;
2257;SDS011;1136;51.574;7.706;2024-02-28T03:45:01;58.97;;;22.63;;
2257;SDS011;1136;51.574;7.706;2024-02-28T03:48:05;44.17;;;23.43;;
2257;SDS011;1136;51.574;7.706;2024-02-28T03:51:10;42.27;;;23.20;;
2257;SDS011;1136;51.574;7.706;2024-02-28T03:54:14;41.73;;;22.57;;
2257;SDS011;1136;51.574;7.706;2024-02-28T03:57:18;42.13;;;22.77;;
2257;SDS011;1136;51.574;7.706;2024-02-28T04:00:25;40.83;;;22.60;;
2257;SDS011;1136;51.574;7.706;2024-02-28T04:03:30;42.33;;;23.63;;
2257;SDS011;1136;51.574;7.706;2024-02-28T04:06:36;41.23;;;23.00;;
2257;SDS011;1136;51.574;7.706;2024-02-28T04:09:40;45.47;;;25.80;;
2257;SDS011;1136;51.574;7.706;2024-02-28T04:12:44;46.60;;;25.77;;
2257;SDS011;1136;51.574;7.706;2024-02-28T04:15:48;52.60;;;26.63;;
2257;SDS011;1136;51.574;7.706;2024-02-28T04:18:52;58.37;;;28.27;;
2257;SDS011;1136;51.574;7.706;2024-02-28T04:21:57;63.37;;;31.07;;
2257;SDS011;1136;51.574;7.706;2024-02-28T04:25:01;92.97;;;30.63;;
2257;SDS011;1136;51.574;7.706;2024-02-28T04:28:05;67.47;;;30.80;;
2257;SDS011;1136;51.574;7.706;2024-02-28T04:31:10;75.13;;;29.97;;
2257;SDS011;1136;51.574;7.706;2024-02-28T04:34:14;66.90;;;29.83;;
2257;SDS011;1136;51.574;7.706;2024-02-28T04:37:18;73.03;;;30.43;;
2257;SDS011;1136;51.574;7.706;2024-02-28T04:40:22;61.87;;;29.30;;
2257;SDS011;1136;51.574;7.706;2024-02-28T04:43:26;72.17;;;30.93;;
2257;SDS011;1136;51.574;7.706;2024-02-28T04:46:30;78.17;;;32.40;;
2257;SDS011;1136;51.574;7.706;2024-02-28T04:49:38;84.73;;;30.30;;
2257;SDS011;1136;51.574;7.706;2024-02-28T04:52:42;61.00;;;30.17;;
2257;SDS011;1136;51.574;7.706;2024-02-28T04:55:47;67.73;;;30.53;;
2257;SDS011;1136;51.574;7.706;2024-02-28T04:58:51;66.30;;;31.50;;
2257;SDS011;1136;51.574;7.706;2024-02-28T05:01:55;64.07;;;29.43;;
2257;SDS011;1136;51.574;7.706;2024-02-28T05:04:59;73.97;;;30.27;;
2257;SDS011;1136;51.574;7.706;2024-02-28T05:08:04;65.17;;;28.63;;
2257;SDS011;1136;51.574;7.706;2024-02-28T05:11:08;62.93;;;29.37;;
2257;SDS011;1136;51.574;7.706;2024-02-28T05:14:12;60.83;;;27.77;;
2257;SDS011;1136;51.574;7.706;2024-02-28T05:17:16;69.50;;;32.03;;
2257;SDS011;1136;51.574;7.706;2024-02-28T05:20:21;66.23;;;31.00;;
2257;SDS011;1136;51.574;7.706;2024-02-28T05:23:25;72.73;;;30.47;;
2257;SDS011;1136;51.574;7.706;2024-02-28T05:26:29;72.17;;;32.03;;
2257;SDS011;1136;51.574;7.706;2024-02-28T05:29:34;68.97;;;28.63;;
2257;SDS011;1136;51.574;7.706;2024-02-28T05:32:39;73.03;;;33.67;;
2257;SDS011;1136;51.574;7.706;2024-02-28T05:35:43;71.03;;;31.17;;
2257;SDS011;1136;51.574;7.706;2024-02-28T05:38:47;67.37;;;30.30;;
2257;SDS011;1136;51.574;7.706;2024-02-28T05:41:52;58.43;;;30.17;;
2257;SDS011;1136;51.574;7.706;2024-02-28T05:44:56;58.20;;;27.83;;
2257;SDS011;1136;51.574;7.706;2024-02-28T05:48:00;64.10;;;30.93;;
2257;SDS011;1136;51.574;7.706;2024-02-28T05:51:04;61.27;;;29.40;;
2257;SDS011;1136;51.574;7.706;2024-02-28T05:54:08;65.50;;;29.67;;
2257;SDS011;1136;51.574;7.706;2024-02-28T05:57:12;66.83;;;32.27;;
2257;SDS011;1136;51.574;7.706;2024-02-28T06:00:16;70.57;;;32.27;;
2257;SDS011;1136;51.574;7.706;2024-02-28T06:03:21;68.70;;;33.10;;
2257;SDS011;1136;51.574;7.706;2024-02-28T06:06:25;63.57;;;30.87;;
2257;SDS011;1136;51.574;7.706;2024-02-28T06:09:29;61.13;;;31.37;;
2257;SDS011;1136;51.574;7.706;2024-02-28T06:12:34;64.37;;;31.87;;
2257;SDS011;1136;51.574;7.706;2024-02-28T06:15:38;69.23;;;32.07;;
2257;SDS011;1136;51.574;7.706;2024-02-28T06:18:42;70.93;;;32.17;;
2257;SDS011;1136;51.574;7.706;2024-02-28T06:21:46;68.33;;;32.27;;
2257;SDS011;1136;51.574;7.706;2024-02-28T06:24:50;65.50;;;30.63;;
2257;SDS011;1136;51.574;7.706;2024-02-28T06:27:54;68.90;;;30.10;;
2257;SDS011;1136;51.574;7.706;2024-02-28T06:30:59;64.30;;;29.97;;
2257;SDS011;1136;51.574;7.706;2024-02-28T06:34:04;58.33;;;30.10;;
2257;SDS011;1136;51.574;7.706;2024-02-28T06:37:08;61.27;;;28.70;;
2257;SDS011;1136;51.574;7.706;2024-02-28T06:40:12;65.90;;;32.10;;
2257;SDS011;1136;51.574;7.706;2024-02-28T06:43:16;61.73;;;29.37;;
2257;SDS011;1136;51.574;7.706;2024-02-28T06:46:20;50.07;;;27.07;;
2257;SDS011;1136;51.574;7.706;2024-02-28T06:49:24;63.53;;;27.70;;
2257;SDS011;1136;51.574;7.706;2024-02-28T06:52:30;63.50;;;29.30;;
2257;SDS011;1136;51.574;7.706;2024-02-28T06:55:35;68.77;;;30.50;;
2257;SDS011;1136;51.574;7.706;2024-02-28T06:58:40;62.60;;;28.00;;
2257;SDS011;1136;51.574;7.706;2024-02-28T07:01:45;52.63;;;26.80;;
2257;SDS011;1136;51.574;7.706;2024-02-28T07:04:49;62.23;;;28.53;;
2257;SDS011;1136;51.574;7.706;2024-02-28T07:07:54;63.90;;;28.10;;
2257;SDS011;1136;51.574;7.706;2024-02-28T07:10:58;63.30;;;29.00;;
2257;SDS011;1136;51.574;7.706;2024-02-28T07:14:02;66.70;;;29.53;;
2257;SDS011;1136;51.574;7.706;2024-02-28T07:17:06;62.20;;;27.53;;
2257;SDS011;1136;51.574;7.706;2024-02-28T07:20:10;58.60;;;26.83;;
2257;SDS011;1136;51.574;7.706;2024-02-28T07:23:16;57.13;;;27.50;;
2257;SDS011;1136;51.574;7.706;2024-02-28T07:26:20;63.13;;;26.70;;
2257;SDS011;1136;51.574;7.706;2024-02-28T07:29:30;53.90;;;30.23;;
2257;SDS011;1136;51.574;7.706;2024-02-28T07:32:35;52.73;;;28.20;;
2257;SDS011;1136;51.574;7.706;2024-02-28T07:35:46;56.70;;;25.77;;
2257;SDS011;1136;51.574;7.706;2024-02-28T07:38:51;48.10;;;25.97;;
2257;SDS011;1136;51.574;7.706;2024-02-28T07:41:56;45.40;;;25.27;;
2257;SDS011;1136;51.574;7.706;2024-02-28T07:45:00;53.97;;;27.30;;
2257;SDS011;1136;51.574;7.706;2024-02-28T07:48:05;52.60;;;26.80;;
2257;SDS011;1136;51.574;7.706;2024-02-28T07:51:10;46.83;;;24.50;;
2257;SDS011;1136;51.574;7.706;2024-02-28T07:54:17;46.80;;;24.00;;
2257;SDS011;1136;51.574;7.706;2024-02-28T07:57:21;44.80;;;23.77;;
2257;SDS011;1136;51.574;7.706;2024-02-28T08:00:25;45.83;;;24.50;;
2257;SDS011;1136;51.574;7.706;2024-02-28T08:03:29;45.57;;;23.83;;
2257;SDS011;1136;51.574;7.706;2024-02-28T08:06:34;48.60;;;24.53;;
2257;SDS011;1136;51.574;7.706;2024-02-28T08:09:38;51.23;;;25.93;;
2257;SDS011;1136;51.574;7.706;2024-02-28T08:12:42;48.77;;;25.33;;
2257;SDS011;1136;51.574;7.706;2024-02-28T08:15:46;43.77;;;25.53;;
2257;SDS011;1136;51.574;7.706;2024-02-28T08:18:50;44.40;;;23.70;;
2257;SDS011;1136;51.574;7.706;2024-02-28T08:21:54;50.47;;;27.60;;
2257;SDS011;1136;51.574;7.706;2024-02-28T08:24:58;43.27;;;22.90;;
2257;SDS011;1136;51.574;7.706;2024-02-28T08:28:03;44.97;;;24.60;;
2257;SDS011;1136;51.574;7.706;2024-02-28T08:31:07;48.87;;;25.73;;
2257;SDS011;1136;51.574;7.706;2024-02-28T08:34:11;41.97;;;23.27;;
2257;SDS011;1136;51.574;7.706;2024-02-28T08:37:16;44.70;;;24.90;;
2257;SDS011;1136;51.574;7.706;2024-02-28T08:40:21;52.03;;;25.83;;
2257;SDS011;1136;51.574;7.706;2024-02-28T08:43:25;52.40;;;27.40;;
2257;SDS011;1136;51.574;7.706;2024-02-28T08:46:29;47.90;;;24.40;;
2257;SDS011;1136;51.574;7.706;2024-02-28T08:49:33;51.27;;;26.60;;
2257;SDS011;1136;51.574;7.706;2024-02-28T08:52:41;53.37;;;28.10;;
2257;SDS011;1136;51.574;7.706;2024-02-28T08:55:45;53.03;;;26.73;;
2257;SDS011;1136;51.574;7.706;2024-02-28T08:58:49;51.53;;;25.60;;
2257;SDS011;1136;51.574;7.706;2024-02-28T09:01:54;51.53;;;28.50;;
2257;SDS011;1136;51.574;7.706;2024-02-28T09:04:58;54.57;;;29.13;;
2257;SDS011;1136;51.574;7.706;2024-02-28T09:08:02;55.87;;;26.30;;
2257;SDS011;1136;51.574;7.706;2024-02-28T09:11:06;64.47;;;30.57;;
2257;SDS011;1136;51.574;7.706;2024-02-28T09:14:10;64.40;;;31.30;;
2257;SDS011;1136;51.574;7.706;2024-02-28T09:17:14;65.13;;;31.37;;
2257;SDS011;1136;51.574;7.706;2024-02-28T09:20:18;62.43;;;33.40;;
2257;SDS011;1136;51.574;7.706;2024-02-28T09:23:23;60.40;;;31.47;;
2257;SDS011;1136;51.574;7.706;2024-02-28T09:26:27;65.20;;;32.23;;
2257;SDS011;1136;51.574;7.706;2024-02-28T09:29:31;59.73;;;29.67;;
2257;SDS011;1136;51.574;7.706;2024-02-28T09:32:35;55.77;;;31.37;;
2257;SDS011;1136;51.574;7.706;2024-02-28T09:35:39;63.07;;;31.97;;
2257;SDS011;1136;51.574;7.706;2024-02-28T09:38:44;59.40;;;31.00;;
2257;SDS011;1136;51.574;7.706;2024-02-28T09:41:48;63.07;;;32.40;;
2257;SDS011;1136;51.574;7.706;2024-02-28T09:44:55;54.40;;;31.13;;
2257;SDS011;1136;51.574;7.706;2024-02-28T09:48:00;59.70;;;29.63;;
2257;SDS011;1136;51.574;7.706;2024-02-28T09:51:04;56.07;;;31.13;;
2257;SDS011;1136;51.574;7.706;2024-02-28T09:54:09;58.07;;;32.57;;
2257;SDS011;1136;51.574;7.706;2024-02-28T09:57:13;65.03;;;32.93;;
2257;SDS011;1136;51.574;7.706;2024-02-28T10:00:19;56.90;;;30.90;;
2257;SDS011;1136;51.574;7.706;2024-02-28T10:03:24;59.00;;;30.90;;
2257;SDS011;1136;51.574;7.706;2024-02-28T10:06:28;54.50;;;28.27;;
2257;SDS011;1136;51.574;7.706;2024-02-28T10:09:32;57.23;;;30.33;;
2257;SDS011;1136;51.574;7.706;2024-02-28T10:12:40;59.73;;;31.87;;
2257;SDS011;1136;51.574;7.706;2024-02-28T10:15:45;53.53;;;28.90;;
2257;SDS011;1136;51.574;7.706;2024-02-28T10:18:50;56.17;;;30.97;;
2257;SDS011;1136;51.574;7.706;2024-02-28T10:21:54;49.00;;;29.10;;
2257;SDS011;1136;51.574;7.706;2024-02-28T10:24:59;49.40;;;28.43;;
2257;SDS011;1136;51.574;7.706;2024-02-28T10:28:04;59.43;;;30.90;;
2257;SDS011;1136;51.574;7.706;2024-02-28T10:31:08;53.20;;;30.83;;
2257;SDS011;1136;51.574;7.706;2024-02-28T10:34:14;51.27;;;29.77;;
2257;SDS011;1136;51.574;7.706;2024-02-28T10:37:20;48.83;;;28.20;;
2257;SDS011;1136;51.574;7.706;2024-02-28T10:40:25;53.83;;;29.73;;
2257;SDS011;1136;51.574;7.706;2024-02-28T10:43:30;50.20;;;30.53;;
2257;SDS011;1136;51.574;7.706;2024-02-28T10:46:34;50.27;;;30.33;;
2257;SDS011;1136;51.574;7.706;2024-02-28T10:49:42;48.83;;;27.73;;
2257;SDS011;1136;51.574;7.706;2024-02-28T10:52:48;43.30;;;28.90;;
2257;SDS011;1136;51.574;7.706;2024-02-28T10:55:54;37.63;;;27.87;;
2257;SDS011;1136;51.574;7.706;2024-02-28T10:59:00;44.23;;;30.90;;
2257;SDS011;1136;51.574;7.706;2024-02-28T11:02:05;40.17;;;30.80;;
2257;SDS011;1136;51.574;7.706;2024-02-28T11:05:10;39.47;;;31.37;;
2257;SDS011;1136;51.574;7.706;2024-02-28T11:08:21;40.80;;;31.20;;
2257;SDS011;1136;51.574;7.706;2024-02-28T11:11:31;43.03;;;32.00;;
2257;SDS011;1136;51.574;7.706;2024-02-28T11:14:36;37.33;;;28.77;;
2257;SDS011;1136;51.574;7.706;2024-02-28T11:17:40;47.47;;;31.30;;
2257;SDS011;1136;51.574;7.706;2024-02-28T11:20:44;39.90;;;31.10;;
2257;SDS011;1136;51.574;7.706;2024-02-28T11:23:58;43.40;;;33.60;;
2257;SDS011;1136;51.574;7.706;2024-02-28T11:27:03;39.50;;;30.20;;
2257;SDS011;1136;51.574;7.706;2024-02-28T11:30:08;42.93;;;32.40;;
2257;SDS011;1136;51.574;7.706;2024-02-28T11:33:13;41.83;;;33.30;;
2257;SDS011;1136;51.574;7.706;2024-02-28T11:36:17;40.03;;;30.50;;
2257;SDS011;1136;51.574;7.706;2024-02-28T11:39:22;43.50;;;30.07;;
2257;SDS011;1136;51.574;7.706;2024-02-28T11:42:29;38.40;;;29.93;;
2257;SDS011;1136;51.574;7.706;2024-02-28T11:45:38;41.80;;;31.87;;
2257;SDS011;1136;51.574;7.706;2024-02-28T11:48:43;36.87;;;30.30;;
2257;SDS011;1136;51.574;7.706;2024-02-28T11:51:47;34.63;;;26.67;;
2257;SDS011;1136;51.574;7.706;2024-02-28T11:54:52;36.90;;;28.53;;
2257;SDS011;1136;51.574;7.706;2024-02-28T11:57:58;41.67;;;28.33;;
2257;SDS011;1136;51.574;7.706;2024-02-28T12:01:02;40.63;;;29.10;;
2257;SDS011;1136;51.574;7.706;2024-02-28T12:04:07;38.43;;;28.67;;
2257;SDS011;1136;51.574;7.706;2024-02-28T12:07:12;40.40;;;28.10;;
2257;SDS011;1136;51.574;7.706;2024-02-28T12:10:16;38.27;;;27.97;;
2257;SDS011;1136;51.574;7.706;2024-02-28T12:13:22;33.80;;;24.83;;
2257;SDS011;1136;51.574;7.706;2024-02-28T12:16:26;37.27;;;28.37;;
2257;SDS011;1136;51.574;7.706;2024-02-28T12:19:32;33.80;;;25.83;;
2257;SDS011;1136;51.574;7.706;2024-02-28T12:22:35;37.17;;;26.97;;
2257;SDS011;1136;51.574;7.706;2024-02-28T12:25:40;35.13;;;26.60;;
2257;SDS011;1136;51.574;7.706;2024-02-28T12:28:44;35.70;;;28.67;;
2257;SDS011;1136;51.574;7.706;2024-02-28T12:31:48;35.07;;;26.20;;
2257;SDS011;1136;51.574;7.706;2024-02-28T12:34:52;34.80;;;27.53;;
2257;SDS011;1136;51.574;7.706;2024-02-28T12:37:57;39.87;;;28.47;;
2257;SDS011;1136;51.574;7.706;2024-02-28T12:41:01;35.03;;;26.57;;
2257;SDS011;1136;51.574;7.706;2024-02-28T12:44:06;36.87;;;27.50;;
2257;SDS011;1136;51.574;7.706;2024-02-28T12:47:12;40.07;;;27.03;;
2257;SDS011;1136;51.574;7.706;2024-02-28T12:50:16;32.90;;;25.10;;
2257;SDS011;1136;51.574;7.706;2024-02-28T12:53:20;36.60;;;25.50;;
2257;SDS011;1136;51.574;7.706;2024-02-28T12:56:24;38.53;;;24.70;;
2257;SDS011;1136;51.574;7.706;2024-02-28T12:59:29;34.83;;;23.73;;
2257;SDS011;1136;51.574;7.706;2024-02-28T13:02:33;39.30;;;25.47;;
2257;SDS011;1136;51.574;7.706;2024-02-28T13:05:37;36.13;;;24.13;;
2257;SDS011;1136;51.574;7.706;2024-02-28T13:08:42;41.97;;;25.40;;
2257;SDS011;1136;51.574;7.706;2024-02-28T13:11:46;38.33;;;24.10;;
2257;SDS011;1136;51.574;7.706;2024-02-28T13:14:50;39.33;;;23.37;;
2257;SDS011;1136;51.574;7.706;2024-02-28T13:17:55;38.13;;;24.37;;
2257;SDS011;1136;51.574;7.706;2024-02-28T13:20:59;36.43;;;23.23;;
2257;SDS011;1136;51.574;7.706;2024-02-28T13:24:03;36.73;;;22.43;;
2257;SDS011;1136;51.574;7.706;2024-02-28T13:27:08;39.10;;;24.33;;
2257;SDS011;1136;51.574;7.706;2024-02-28T13:30:13;40.40;;;23.57;;
2257;SDS011;1136;51.574;7.706;2024-02-28T13:33:18;37.70;;;23.30;;
2257;SDS011;1136;51.574;7.706;2024-02-28T13:36:24;33.53;;;22.20;;
2257;SDS011;1136;51.574;7.706;2024-02-28T13:39:29;36.83;;;22.37;;
2257;SDS011;1136;51.574;7.706;2024-02-28T13:42:33;37.73;;;23.00;;
2257;SDS011;1136;51.574;7.706;2024-02-28T13:45:38;37.83;;;22.70;;
2257;SDS011;1136;51.574;7.706;2024-02-28T13:48:45;32.20;;;21.87;;
2257;SDS011;1136;51.574;7.706;2024-02-28T13:51:50;38.63;;;22.43;;
2257;SDS011;1136;51.574;7.706;2024-02-28T13:54:55;37.80;;;22.93;;
2257;SDS011;1136;51.574;7.706;2024-02-28T13:58:05;30.63;;;21.20;;
2257;SDS011;1136;51.574;7.706;2024-02-28T14:01:13;42.43;;;22.20;;
2257;SDS011;1136;51.574;7.706;2024-02-28T14:04:18;36.17;;;22.90;;
2257;SDS011;1136;51.574;7.706;2024-02-28T14:07:22;41.07;;;22.70;;
2257;SDS011;1136;51.574;7.706;2024-02-28T14:10:26;31.90;;;21.40;;
2257;SDS011;1136;51.574;7.706;2024-02-28T14:13:30;33.17;;;20.57;;
2257;SDS011;1136;51.574;7.706;2024-02-28T14:16:34;32.53;;;19.40;;
2257;SDS011;1136;51.574;7.706;2024-02-28T14:19:39;32.60;;;18.80;;
2257;SDS011;1136;51.574;7.706;2024-02-28T14:22:43;34.10;;;20.77;;
2257;SDS011;1136;51.574;7.706;2024-02-28T14:25:48;32.00;;;19.60;;
2257;SDS011;1136;51.574;7.706;2024-02-28T14:28:52;26.87;;;18.77;;
2257;SDS011;1136;51.574;7.706;2024-02-28T14:31:57;32.43;;;20.20;;
2257;SDS011;1136;51.574;7.706;2024-02-28T14:35:07;36.23;;;21.10;;
2257;SDS011;1136;51.574;7.706;2024-02-28T14:38:12;33.07;;;18.73;;
2257;SDS011;1136;51.574;7.706;2024-02-28T14:41:16;31.33;;;20.70;;
2257;SDS011;1136;51.574;7.706;2024-02-28T14:44:21;33.33;;;18.57;;
2257;SDS011;1136;51.574;7.706;2024-02-28T14:47:25;29.27;;;17.83;;
2257;SDS011;1136;51.574;7.706;2024-02-28T14:50:29;26.47;;;17.60;;
2257;SDS011;1136;51.574;7.706;2024-02-28T14:53:33;35.27;;;19.33;;
2257;SDS011;1136;51.574;7.706;2024-02-28T14:56:37;31.40;;;19.10;;
2257;SDS011;1136;51.574;7.706;2024-02-28T14:59:42;27.57;;;16.87;;
2257;SDS011;1136;51.574;7.706;2024-02-28T15:02:47;28.67;;;18.97;;
2257;SDS011;1136;51.574;7.706;2024-02-28T15:05:51;27.83;;;18.73;;
2257;SDS011;1136;51.574;7.706;2024-02-28T15:08:56;28.33;;;18.20;;
2257;SDS011;1136;51.574;7.706;2024-02-28T15:12:00;31.67;;;18.03;;
2257;SDS011;1136;51.574;7.706;2024-02-28T15:15:05;27.60;;;19.73;;
2257;SDS011;1136;51.574;7.706;2024-02-28T15:18:09;34.20;;;20.27;;
2257;SDS011;1136;51.574;7.706;2024-02-28T15:21:14;30.53;;;18.53;;
2257;SDS011;1136;51.574;7.706;2024-02-28T15:24:18;33.20;;;20.13;;
2257;SDS011;1136;51.574;7.706;2024-02-28T15:27:23;30.00;;;19.00;;
2257;SDS011;1136;51.574;7.706;2024-02-28T15:30:27;33.17;;;19.17;;
2257;SDS011;1136;51.574;7.706;2024-02-28T15:33:31;30.00;;;18.40;;
2257;SDS011;1136;51.574;7.706;2024-02-28T15:36:35;29.57;;;18.67;;
2257;SDS011;1136;51.574;7.706;2024-02-28T15:39:39;32.33;;;19.13;;
2257;SDS011;1136;51.574;7.706;2024-02-28T15:42:44;30.27;;;19.27;;
2257;SDS011;1136;51.574;7.706;2024-02-28T15:45:48;31.70;;;17.67;;
2257;SDS011;1136;51.574;7.706;2024-02-28T15:48:53;33.50;;;19.50;;
2257;SDS011;1136;51.574;7.706;2024-02-28T15:51:57;28.33;;;18.10;;
2257;SDS011;1136;51.574;7.706;2024-02-28T15:55:02;35.20;;;19.90;;
2257;SDS011;1136;51.574;7.706;2024-02-28T15:58:08;31.83;;;20.20;;
2257;SDS011;1136;51.574;7.706;2024-02-28T16:01:12;35.50;;;22.03;;
2257;SDS011;1136;51.574;7.706;2024-02-28T16:04:16;38.53;;;22.17;;
2257;SDS011;1136;51.574;7.706;2024-02-28T16:07:21;37.30;;;20.90;;
2257;SDS011;1136;51.574;7.706;2024-02-28T16:10:25;29.30;;;18.30;;
2257;SDS011;1136;51.574;7.706;2024-02-28T16:13:29;34.60;;;19.70;;
2257;SDS011;1136;51.574;7.706;2024-02-28T16:16:33;30.63;;;18.77;;
2257;SDS011;1136;51.574;7.706;2024-02-28T16:19:38;29.30;;;18.57;;
2257;SDS011;1136;51.574;7.706;2024-02-28T16:22:42;32.53;;;19.00;;
2257;SDS011;1136;51.574;7.706;2024-02-28T16:25:47;30.00;;;19.50;;
2257;SDS011;1136;51.574;7.706;2024-02-28T16:28:51;28.47;;;19.30;;
2257;SDS011;1136;51.574;7.706;2024-02-28T16:31:55;35.33;;;19.30;;
2257;SDS011;1136;51.574;7.706;2024-02-28T16:34:59;34.20;;;20.23;;
2257;SDS011;1136;51.574;7.706;2024-02-28T16:38:03;31.83;;;19.30;;
2257;SDS011;1136;51.574;7.706;2024-02-28T16:41:07;28.57;;;17.63;;
2257;SDS011;1136;51.574;7.706;2024-02-28T16:44:12;31.83;;;19.00;;
2257;SDS011;1136;51.574;7.706;2024-02-28T16:47:16;37.93;;;20.77;;
2257;SDS011;1136;51.574;7.706;2024-02-28T16:50:20;27.37;;;19.53;;
2257;SDS011;1136;51.574;7.706;2024-02-28T16:53:24;32.10;;;20.00;;
2257;SDS011;1136;51.574;7.706;2024-02-28T16:56:34;30.87;;;18.80;;
2257;SDS011;1136;51.574;7.706;2024-02-28T16:59:38;36.13;;;20.47;;
2257;SDS011;1136;51.574;7.706;2024-02-28T17:02:42;46.47;;;19.57;;
2257;SDS011;1136;51.574;7.706;2024-02-28T17:05:47;37.30;;;19.53;;
2257;SDS011;1136;51.574;7.706;2024-02-28T17:08:54;29.70;;;18.17;;
2257;SDS011;1136;51.574;7.706;2024-02-28T17:11:58;32.83;;;19.00;;
2257;SDS011;1136;51.574;7.706;2024-02-28T17:15:02;30.73;;;19.33;;
2257;SDS011;1136;51.574;7.706;2024-02-28T17:18:06;30.17;;;18.70;;
2257;SDS011;1136;51.574;7.706;2024-02-28T17:21:11;30.40;;;18.13;;
2257;SDS011;1136;51.574;7.706;2024-02-28T17:24:15;28.73;;;17.50;;
2257;SDS011;1136;51.574;7.706;2024-02-28T17:27:20;26.53;;;18.30;;
2257;SDS011;1136;51.574;7.706;2024-02-28T17:30:24;30.60;;;19.13;;
2257;SDS011;1136;51.574;7.706;2024-02-28T17:33:28;30.90;;;17.60;;
2257;SDS011;1136;51.574;7.706;2024-02-28T17:36:32;30.73;;;17.00;;
2257;SDS011;1136;51.574;7.706;2024-02-28T17:39:37;31.83;;;18.57;;
2257;SDS011;1136;51.574;7.706;2024-02-28T17:42:42;30.87;;;17.00;;
2257;SDS011;1136;51.574;7.706;2024-02-28T17:45:49;27.90;;;16.97;;
2257;SDS011;1136;51.574;7.706;2024-02-28T17:48:54;32.07;;;17.77;;
2257;SDS011;1136;51.574;7.706;2024-02-28T17:51:59;28.13;;;16.57;;
2257;SDS011;1136;51.574;7.706;2024-02-28T17:55:03;30.90;;;17.10;;
2257;SDS011;1136;51.574;7.706;2024-02-28T17:58:07;26.37;;;17.70;;
2257;SDS011;1136;51.574;7.706;2024-02-28T18:01:14;25.97;;;17.17;;
2257;SDS011;1136;51.574;7.706;2024-02-28T18:04:18;27.10;;;16.80;;
2257;SDS011;1136;51.574;7.706;2024-02-28T18:07:22;23.50;;;15.80;;
2257;SDS011;1136;51.574;7.706;2024-02-28T18:10:29;21.70;;;15.13;;
2257;SDS011;1136;51.574;7.706;2024-02-28T18:13:35;30.00;;;15.20;;
2257;SDS011;1136;51.574;7.706;2024-02-28T18:16:39;24.57;;;13.87;;
2257;SDS011;1136;51.574;7.706;2024-02-28T18:19:43;25.40;;;15.67;;
2257;SDS011;1136;51.574;7.706;2024-02-28T18:22:47;24.87;;;14.20;;
2257;SDS011;1136;51.574;7.706;2024-02-28T18:25:51;25.90;;;15.57;;
2257;SDS011;1136;51.574;7.706;2024-02-28T18:28:55;27.40;;;14.50;;
2257;SDS011;1136;51.574;7.706;2024-02-28T18:32:01;21.23;;;13.37;;